sensor_id;sensor_type;location;lat;lon;timestamp;P1;durP1;ratioP1;P2;durP2;ratioP2
3004;SDS011;1512;51.486;6.610;2023-06-14T00:04:04;8.60;;;5.87;;
3004;SDS011;1512;51.486;6.610;2023-06-14T00:08:14;5.80;;;5.20;;
3004;SDS011;1512;51.486;6.610;2023-06-14T00:12:23;6.80;;;6.10;;
3004;SDS011;1512;51.486;6.610;2023-06-14T00:16:32;7.70;;;5.97;;
3004;SDS011;1512;51.486;6.610;2023-06-14T00:20:42;9.30;;;7.40;;
3004;SDS011;1512;51.486;6.610;2023-06-14T00:24:51;9.37;;;6.37;;
3004;SDS011;1512;51.486;6.610;2023-06-14T00:29:01;7.47;;;6.50;;
3004;SDS011;1512;51.486;6.610;2023-06-14T00:33:10;6.73;;;5.43;;
3004;SDS011;1512;51.486;6.610;2023-06-14T00:37:19;6.43;;;5.83;;
3004;SDS011;1512;51.486;6.610;2023-06-14T00:41:28;6.93;;;6.00;;
3004;SDS011;1512;51.486;6.610;2023-06-14T00:45:36;7.00;;;6.30;;
3004;SDS011;1512;51.486;6.610;2023-06-14T00:49:45;8.77;;;7.00;;
3004;SDS011;1512;51.486;6.610;2023-06-14T00:53:55;6.00;;;5.17;;
3004;SDS011;1512;51.486;6.610;2023-06-14T00:58:04;7.33;;;6.60;;
3004;SDS011;1512;51.486;6.610;2023-06-14T01:02:13;6.20;;;5.60;;
3004;SDS011;1512;51.486;6.610;2023-06-14T01:06:27;7.20;;;6.40;;
3004;SDS011;1512;51.486;6.610;2023-06-14T01:15:03;9.13;;;6.30;;
3004;SDS011;1512;51.486;6.610;2023-06-14T01:19:12;6.10;;;5.17;;
3004;SDS011;1512;51.486;6.610;2023-06-14T01:23:24;8.57;;;5.70;;
3004;SDS011;1512;51.486;6.610;2023-06-14T01:27:34;7.03;;;5.40;;
3004;SDS011;1512;51.486;6.610;2023-06-14T01:31:43;6.43;;;5.77;;
3004;SDS011;1512;51.486;6.610;2023-06-14T01:35:53;5.90;;;5.30;;
3004;SDS011;1512;51.486;6.610;2023-06-14T01:40:04;8.17;;;6.90;;
3004;SDS011;1512;51.486;6.610;2023-06-14T01:44:14;5.90;;;5.30;;
3004;SDS011;1512;51.486;6.610;2023-06-14T01:48:25;7.60;;;6.00;;
3004;SDS011;1512;51.486;6.610;2023-06-14T01:52:34;6.40;;;5.60;;
3004;SDS011;1512;51.486;6.610;2023-06-14T01:56:42;6.63;;;5.13;;
3004;SDS011;1512;51.486;6.610;2023-06-14T02:00:51;5.80;;;5.20;;
3004;SDS011;1512;51.486;6.610;2023-06-14T02:05:02;8.37;;;6.00;;
3004;SDS011;1512;51.486;6.610;2023-06-14T02:09:11;6.10;;;5.00;;
3004;SDS011;1512;51.486;6.610;2023-06-14T02:13:20;6.00;;;5.20;;
3004;SDS011;1512;51.486;6.610;2023-06-14T02:17:29;6.17;;;5.00;;
3004;SDS011;1512;51.486;6.610;2023-06-14T02:21:38;6.83;;;5.10;;
3004;SDS011;1512;51.486;6.610;2023-06-14T02:25:47;9.60;;;6.43;;
3004;SDS011;1512;51.486;6.610;2023-06-14T02:29:55;6.10;;;5.50;;
3004;SDS011;1512;51.486;6.610;2023-06-14T02:34:04;6.27;;;5.10;;
3004;SDS011;1512;51.486;6.610;2023-06-14T02:38:14;6.40;;;5.77;;
3004;SDS011;1512;51.486;6.610;2023-06-14T02:42:23;6.93;;;4.90;;
3004;SDS011;1512;51.486;6.610;2023-06-14T02:46:32;10.73;;;5.57;;
3004;SDS011;1512;51.486;6.610;2023-06-14T02:50:41;7.17;;;5.60;;
3004;SDS011;1512;51.486;6.610;2023-06-14T02:54:50;6.97;;;5.73;;
3004;SDS011;1512;51.486;6.610;2023-06-14T02:58:59;6.57;;;5.40;;
3004;SDS011;1512;51.486;6.610;2023-06-14T03:03:08;6.87;;;5.50;;
3004;SDS011;1512;51.486;6.610;2023-06-14T03:07:19;5.87;;;5.37;;
3004;SDS011;1512;51.486;6.610;2023-06-14T03:11:28;6.43;;;4.60;;
3004;SDS011;1512;51.486;6.610;2023-06-14T03:15:36;6.30;;;5.10;;
3004;SDS011;1512;51.486;6.610;2023-06-14T03:19:47;4.47;;;4.07;;
3004;SDS011;1512;51.486;6.610;2023-06-14T03:23:56;7.13;;;5.23;;
3004;SDS011;1512;51.486;6.610;2023-06-14T03:28:05;6.70;;;5.07;;
3004;SDS011;1512;51.486;6.610;2023-06-14T03:32:13;5.20;;;4.70;;
3004;SDS011;1512;51.486;6.610;2023-06-14T03:36:22;5.30;;;4.80;;
3004;SDS011;1512;51.486;6.610;2023-06-14T03:44:47;6.40;;;5.23;;
3004;SDS011;1512;51.486;6.610;2023-06-14T03:48:56;5.57;;;4.67;;
3004;SDS011;1512;51.486;6.610;2023-06-14T03:53:05;9.18;;;4.40;;
3004;SDS011;1512;51.486;6.610;2023-06-14T03:57:14;6.23;;;4.60;;
3004;SDS011;1512;51.486;6.610;2023-06-14T04:01:25;4.57;;;4.03;;
3004;SDS011;1512;51.486;6.610;2023-06-14T04:05:36;5.93;;;4.70;;
3004;SDS011;1512;51.486;6.610;2023-06-14T04:09:47;7.10;;;4.50;;
3004;SDS011;1512;51.486;6.610;2023-06-14T04:13:56;6.57;;;4.60;;
3004;SDS011;1512;51.486;6.610;2023-06-14T04:18:07;5.03;;;4.53;;
3004;SDS011;1512;51.486;6.610;2023-06-14T04:22:16;7.00;;;4.30;;
3004;SDS011;1512;51.486;6.610;2023-06-14T04:26:25;5.27;;;4.77;;
3004;SDS011;1512;51.486;6.610;2023-06-14T04:30:37;8.20;;;5.13;;
3004;SDS011;1512;51.486;6.610;2023-06-14T04:34:47;6.60;;;4.93;;
3004;SDS011;1512;51.486;6.610;2023-06-14T04:38:57;5.90;;;4.50;;
3004;SDS011;1512;51.486;6.610;2023-06-14T04:43:07;5.70;;;4.47;;
3004;SDS011;1512;51.486;6.610;2023-06-14T04:47:18;6.13;;;4.60;;
3004;SDS011;1512;51.486;6.610;2023-06-14T04:51:28;6.20;;;5.20;;
3004;SDS011;1512;51.486;6.610;2023-06-14T04:55:44;4.67;;;4.23;;
3004;SDS011;1512;51.486;6.610;2023-06-14T04:59:55;11.07;;;6.07;;
3004;SDS011;1512;51.486;6.610;2023-06-14T05:04:05;7.10;;;4.60;;
3004;SDS011;1512;51.486;6.610;2023-06-14T05:08:13;8.40;;;4.57;;
3004;SDS011;1512;51.486;6.610;2023-06-14T05:12:22;6.40;;;4.90;;
3004;SDS011;1512;51.486;6.610;2023-06-14T05:16:31;5.83;;;5.33;;
3004;SDS011;1512;51.486;6.610;2023-06-14T05:20:40;7.47;;;4.53;;
3004;SDS011;1512;51.486;6.610;2023-06-14T05:24:49;6.03;;;5.00;;
3004;SDS011;1512;51.486;6.610;2023-06-14T05:28:57;8.03;;;5.70;;
3004;SDS011;1512;51.486;6.610;2023-06-14T05:33:08;14.53;;;4.87;;
3004;SDS011;1512;51.486;6.610;2023-06-14T05:37:17;16.53;;;5.60;;
3004;SDS011;1512;51.486;6.610;2023-06-14T05:41:25;5.53;;;4.80;;
3004;SDS011;1512;51.486;6.610;2023-06-14T05:50:44;12.80;;;5.00;;
3004;SDS011;1512;51.486;6.610;2023-06-14T05:54:52;10.00;;;5.07;;
3004;SDS011;1512;51.486;6.610;2023-06-14T05:59:01;8.10;;;5.10;;
3004;SDS011;1512;51.486;6.610;2023-06-14T06:03:10;7.83;;;4.90;;
3004;SDS011;1512;51.486;6.610;2023-06-14T06:07:20;5.43;;;4.93;;
3004;SDS011;1512;51.486;6.610;2023-06-14T06:11:29;6.10;;;4.87;;
3004;SDS011;1512;51.486;6.610;2023-06-14T06:15:39;9.90;;;4.53;;
3004;SDS011;1512;51.486;6.610;2023-06-14T06:19:48;5.20;;;4.53;;
3004;SDS011;1512;51.486;6.610;2023-06-14T06:23:56;10.60;;;4.67;;
3004;SDS011;1512;51.486;6.610;2023-06-14T06:28:05;6.40;;;5.00;;
3004;SDS011;1512;51.486;6.610;2023-06-14T06:32:17;6.93;;;4.80;;
3004;SDS011;1512;51.486;6.610;2023-06-14T06:36:25;5.97;;;4.67;;
3004;SDS011;1512;51.486;6.610;2023-06-14T06:40:34;6.80;;;4.23;;
3004;SDS011;1512;51.486;6.610;2023-06-14T06:44:43;8.10;;;4.80;;
3004;SDS011;1512;51.486;6.610;2023-06-14T06:48:52;4.93;;;4.23;;
3004;SDS011;1512;51.486;6.610;2023-06-14T06:53:01;9.30;;;4.40;;
3004;SDS011;1512;51.486;6.610;2023-06-14T06:57:11;5.50;;;4.65;;
3004;SDS011;1512;51.486;6.610;2023-06-14T07:01:19;4.37;;;3.87;;
3004;SDS011;1512;51.486;6.610;2023-06-14T07:05:28;3.97;;;3.10;;
3004;SDS011;1512;51.486;6.610;2023-06-14T07:09:37;4.63;;;3.40;;
3004;SDS011;1512;51.486;6.610;2023-06-14T07:13:47;4.70;;;3.47;;
3004;SDS011;1512;51.486;6.610;2023-06-14T07:17:56;3.60;;;2.90;;
3004;SDS011;1512;51.486;6.610;2023-06-14T07:22:07;3.47;;;2.80;;
3004;SDS011;1512;51.486;6.610;2023-06-14T07:26:15;3.47;;;2.83;;
3004;SDS011;1512;51.486;6.610;2023-06-14T07:30:24;4.70;;;3.33;;
3004;SDS011;1512;51.486;6.610;2023-06-14T07:34:33;4.37;;;2.97;;
3004;SDS011;1512;51.486;6.610;2023-06-14T07:38:42;3.57;;;3.20;;
3004;SDS011;1512;51.486;6.610;2023-06-14T07:42:51;4.03;;;3.50;;
3004;SDS011;1512;51.486;6.610;2023-06-14T07:47:01;5.00;;;3.30;;
3004;SDS011;1512;51.486;6.610;2023-06-14T07:51:10;4.63;;;3.40;;
3004;SDS011;1512;51.486;6.610;2023-06-14T07:55:19;4.33;;;3.37;;
3004;SDS011;1512;51.486;6.610;2023-06-14T07:59:28;8.30;;;3.27;;
3004;SDS011;1512;51.486;6.610;2023-06-14T08:03:36;4.57;;;3.60;;
3004;SDS011;1512;51.486;6.610;2023-06-14T08:07:45;3.70;;;3.37;;
3004;SDS011;1512;51.486;6.610;2023-06-14T08:11:54;3.97;;;3.37;;
3004;SDS011;1512;51.486;6.610;2023-06-14T08:16:03;3.07;;;2.87;;
3004;SDS011;1512;51.486;6.610;2023-06-14T08:20:12;3.70;;;3.40;;
3004;SDS011;1512;51.486;6.610;2023-06-14T08:24:23;4.47;;;4.07;;
3004;SDS011;1512;51.486;6.610;2023-06-14T08:28:32;5.27;;;3.27;;
3004;SDS011;1512;51.486;6.610;2023-06-14T08:32:40;6.13;;;3.10;;
3004;SDS011;1512;51.486;6.610;2023-06-14T08:36:52;3.20;;;2.90;;
3004;SDS011;1512;51.486;6.610;2023-06-14T08:41:00;6.33;;;3.00;;
3004;SDS011;1512;51.486;6.610;2023-06-14T08:45:10;4.43;;;2.87;;
3004;SDS011;1512;51.486;6.610;2023-06-14T08:49:19;12.00;;;3.87;;
3004;SDS011;1512;51.486;6.610;2023-06-14T08:53:32;3.23;;;2.87;;
3004;SDS011;1512;51.486;6.610;2023-06-14T08:57:43;6.77;;;3.10;;
3004;SDS011;1512;51.486;6.610;2023-06-14T09:02:12;4.50;;;2.80;;
3004;SDS011;1512;51.486;6.610;2023-06-14T09:06:21;3.40;;;3.10;;
3004;SDS011;1512;51.486;6.610;2023-06-14T09:10:32;3.40;;;2.97;;
3004;SDS011;1512;51.486;6.610;2023-06-14T09:14:42;4.23;;;3.00;;
3004;SDS011;1512;51.486;6.610;2023-06-14T09:18:50;3.50;;;3.20;;
3004;SDS011;1512;51.486;6.610;2023-06-14T09:23:00;2.63;;;2.43;;
3004;SDS011;1512;51.486;6.610;2023-06-14T09:27:13;3.67;;;3.37;;
3004;SDS011;1512;51.486;6.610;2023-06-14T09:31:21;4.47;;;3.20;;
3004;SDS011;1512;51.486;6.610;2023-06-14T09:35:32;4.57;;;2.90;;
3004;SDS011;1512;51.486;6.610;2023-06-14T09:48:20;2.93;;;2.63;;
3004;SDS011;1512;51.486;6.610;2023-06-14T09:52:29;3.67;;;3.10;;
3004;SDS011;1512;51.486;6.610;2023-06-14T09:56:40;4.53;;;3.03;;
3004;SDS011;1512;51.486;6.610;2023-06-14T10:00:49;2.90;;;2.63;;
3004;SDS011;1512;51.486;6.610;2023-06-14T10:05:06;3.43;;;2.83;;
3004;SDS011;1512;51.486;6.610;2023-06-14T10:09:16;3.40;;;3.10;;
3004;SDS011;1512;51.486;6.610;2023-06-14T10:13:25;3.30;;;2.90;;
3004;SDS011;1512;51.486;6.610;2023-06-14T10:17:40;3.77;;;3.10;;
3004;SDS011;1512;51.486;6.610;2023-06-14T10:26:29;4.30;;;3.13;;
3004;SDS011;1512;51.486;6.610;2023-06-14T10:30:38;2.90;;;2.60;;
3004;SDS011;1512;51.486;6.610;2023-06-14T10:34:53;3.23;;;2.93;;
3004;SDS011;1512;51.486;6.610;2023-06-14T10:39:12;2.50;;;2.30;;
3004;SDS011;1512;51.486;6.610;2023-06-14T10:43:24;2.67;;;2.43;;
3004;SDS011;1512;51.486;6.610;2023-06-14T10:47:33;2.87;;;2.20;;
3004;SDS011;1512;51.486;6.610;2023-06-14T10:51:45;2.30;;;2.10;;
3004;SDS011;1512;51.486;6.610;2023-06-14T10:55:56;2.90;;;2.33;;
3004;SDS011;1512;51.486;6.610;2023-06-14T11:00:07;6.20;;;3.43;;
3004;SDS011;1512;51.486;6.610;2023-06-14T11:04:20;2.57;;;2.37;;
3004;SDS011;1512;51.486;6.610;2023-06-14T11:12:59;8.73;;;2.83;;
3004;SDS011;1512;51.486;6.610;2023-06-14T11:17:08;2.30;;;2.10;;
3004;SDS011;1512;51.486;6.610;2023-06-14T11:21:16;3.13;;;2.47;;
3004;SDS011;1512;51.486;6.610;2023-06-14T11:25:26;2.57;;;2.37;;
3004;SDS011;1512;51.486;6.610;2023-06-14T11:29:35;2.60;;;2.40;;
3004;SDS011;1512;51.486;6.610;2023-06-14T11:33:48;6.23;;;3.87;;
3004;SDS011;1512;51.486;6.610;2023-06-14T11:37:56;2.47;;;2.20;;
3004;SDS011;1512;51.486;6.610;2023-06-14T11:42:05;3.07;;;2.60;;
3004;SDS011;1512;51.486;6.610;2023-06-14T11:46:14;2.53;;;2.23;;
3004;SDS011;1512;51.486;6.610;2023-06-14T11:50:24;2.77;;;2.47;;
3004;SDS011;1512;51.486;6.610;2023-06-14T11:54:35;3.63;;;2.60;;
3004;SDS011;1512;51.486;6.610;2023-06-14T11:58:44;3.40;;;2.30;;
3004;SDS011;1512;51.486;6.610;2023-06-14T12:02:54;2.57;;;2.37;;
3004;SDS011;1512;51.486;6.610;2023-06-14T12:07:14;3.87;;;2.53;;
3004;SDS011;1512;51.486;6.610;2023-06-14T12:11:22;3.67;;;3.37;;
3004;SDS011;1512;51.486;6.610;2023-06-14T12:15:31;2.83;;;2.50;;
3004;SDS011;1512;51.486;6.610;2023-06-14T12:19:43;2.93;;;2.33;;
3004;SDS011;1512;51.486;6.610;2023-06-14T12:23:56;3.00;;;2.70;;
3004;SDS011;1512;51.486;6.610;2023-06-14T12:28:06;2.80;;;2.60;;
3004;SDS011;1512;51.486;6.610;2023-06-14T12:32:17;2.73;;;2.53;;
3004;SDS011;1512;51.486;6.610;2023-06-14T12:36:27;10.33;;;3.37;;
3004;SDS011;1512;51.486;6.610;2023-06-14T12:40:36;2.73;;;2.50;;
3004;SDS011;1512;51.486;6.610;2023-06-14T12:44:46;2.73;;;2.53;;
3004;SDS011;1512;51.486;6.610;2023-06-14T12:48:55;3.73;;;3.03;;
3004;SDS011;1512;51.486;6.610;2023-06-14T12:53:04;2.80;;;2.60;;
3004;SDS011;1512;51.486;6.610;2023-06-14T12:57:12;3.20;;;2.57;;
3004;SDS011;1512;51.486;6.610;2023-06-14T13:01:22;10.20;;;3.00;;
3004;SDS011;1512;51.486;6.610;2023-06-14T13:05:30;7.57;;;3.70;;
3004;SDS011;1512;51.486;6.610;2023-06-14T13:09:40;3.00;;;2.70;;
3004;SDS011;1512;51.486;6.610;2023-06-14T13:13:49;3.37;;;3.17;;
3004;SDS011;1512;51.486;6.610;2023-06-14T13:17:58;3.17;;;2.97;;
3004;SDS011;1512;51.486;6.610;2023-06-14T13:22:07;3.60;;;3.30;;
3004;SDS011;1512;51.486;6.610;2023-06-14T13:26:17;3.10;;;2.87;;
3004;SDS011;1512;51.486;6.610;2023-06-14T13:30:25;4.90;;;3.20;;
3004;SDS011;1512;51.486;6.610;2023-06-14T13:34:34;9.63;;;3.57;;
3004;SDS011;1512;51.486;6.610;2023-06-14T13:38:43;3.03;;;2.83;;
3004;SDS011;1512;51.486;6.610;2023-06-14T13:42:53;3.63;;;3.33;;
3004;SDS011;1512;51.486;6.610;2023-06-14T13:47:02;3.50;;;3.20;;
3004;SDS011;1512;51.486;6.610;2023-06-14T13:51:11;3.30;;;3.00;;
3004;SDS011;1512;51.486;6.610;2023-06-14T13:55:19;3.83;;;3.43;;
3004;SDS011;1512;51.486;6.610;2023-06-14T13:59:28;3.43;;;3.13;;
3004;SDS011;1512;51.486;6.610;2023-06-14T14:03:38;3.53;;;3.10;;
3004;SDS011;1512;51.486;6.610;2023-06-14T14:07:47;3.77;;;3.30;;
3004;SDS011;1512;51.486;6.610;2023-06-14T14:11:56;3.20;;;2.93;;
3004;SDS011;1512;51.486;6.610;2023-06-14T14:16:05;3.83;;;3.20;;
3004;SDS011;1512;51.486;6.610;2023-06-14T14:20:14;3.60;;;3.30;;
3004;SDS011;1512;51.486;6.610;2023-06-14T14:24:24;3.77;;;3.43;;
3004;SDS011;1512;51.486;6.610;2023-06-14T14:28:33;3.80;;;3.30;;
3004;SDS011;1512;51.486;6.610;2023-06-14T14:32:42;4.27;;;3.87;;
3004;SDS011;1512;51.486;6.610;2023-06-14T14:36:51;3.63;;;3.33;;
3004;SDS011;1512;51.486;6.610;2023-06-14T14:41:00;4.10;;;3.70;;
3004;SDS011;1512;51.486;6.610;2023-06-14T14:45:09;4.13;;;3.73;;
3004;SDS011;1512;51.486;6.610;2023-06-14T14:49:18;4.03;;;3.63;;
3004;SDS011;1512;51.486;6.610;2023-06-14T14:53:27;4.30;;;3.90;;
3004;SDS011;1512;51.486;6.610;2023-06-14T14:57:36;3.40;;;3.07;;
3004;SDS011;1512;51.486;6.610;2023-06-14T15:01:45;4.60;;;3.13;;
3004;SDS011;1512;51.486;6.610;2023-06-14T15:05:53;4.63;;;3.27;;
3004;SDS011;1512;51.486;6.610;2023-06-14T15:10:02;5.03;;;3.70;;
3004;SDS011;1512;51.486;6.610;2023-06-14T15:14:12;4.37;;;3.97;;
3004;SDS011;1512;51.486;6.610;2023-06-14T15:18:22;5.60;;;4.20;;
3004;SDS011;1512;51.486;6.610;2023-06-14T15:22:30;3.80;;;3.33;;
3004;SDS011;1512;51.486;6.610;2023-06-14T15:26:39;3.53;;;3.03;;
3004;SDS011;1512;51.486;6.610;2023-06-14T15:30:48;4.30;;;3.40;;
3004;SDS011;1512;51.486;6.610;2023-06-14T15:34:56;4.30;;;3.90;;
3004;SDS011;1512;51.486;6.610;2023-06-14T15:39:05;3.53;;;3.07;;
3004;SDS011;1512;51.486;6.610;2023-06-14T15:43:14;3.80;;;3.50;;
3004;SDS011;1512;51.486;6.610;2023-06-14T15:47:22;4.03;;;3.70;;
3004;SDS011;1512;51.486;6.610;2023-06-14T15:51:32;3.73;;;3.33;;
3004;SDS011;1512;51.486;6.610;2023-06-14T15:55:40;4.77;;;4.00;;
3004;SDS011;1512;51.486;6.610;2023-06-14T15:59:49;4.93;;;3.67;;
3004;SDS011;1512;51.486;6.610;2023-06-14T16:03:58;5.00;;;3.90;;
3004;SDS011;1512;51.486;6.610;2023-06-14T16:08:07;4.50;;;4.10;;
3004;SDS011;1512;51.486;6.610;2023-06-14T16:12:15;4.27;;;3.43;;
3004;SDS011;1512;51.486;6.610;2023-06-14T16:16:24;3.77;;;3.47;;
3004;SDS011;1512;51.486;6.610;2023-06-14T16:20:34;4.50;;;4.10;;
3004;SDS011;1512;51.486;6.610;2023-06-14T16:24:43;6.33;;;4.27;;
3004;SDS011;1512;51.486;6.610;2023-06-14T16:28:52;3.73;;;3.40;;
3004;SDS011;1512;51.486;6.610;2023-06-14T16:33:01;3.80;;;3.50;;
3004;SDS011;1512;51.486;6.610;2023-06-14T16:37:10;4.30;;;3.67;;
3004;SDS011;1512;51.486;6.610;2023-06-14T16:41:18;3.77;;;3.47;;
3004;SDS011;1512;51.486;6.610;2023-06-14T16:45:27;3.80;;;3.50;;
3004;SDS011;1512;51.486;6.610;2023-06-14T16:49:36;4.17;;;3.77;;
3004;SDS011;1512;51.486;6.610;2023-06-14T16:53:45;3.63;;;3.33;;
3004;SDS011;1512;51.486;6.610;2023-06-14T16:57:53;5.40;;;4.13;;
3004;SDS011;1512;51.486;6.610;2023-06-14T17:02:04;3.90;;;3.50;;
3004;SDS011;1512;51.486;6.610;2023-06-14T17:06:32;4.20;;;3.87;;
3004;SDS011;1512;51.486;6.610;2023-06-14T17:10:40;5.37;;;4.43;;
3004;SDS011;1512;51.486;6.610;2023-06-14T17:14:49;4.23;;;3.83;;
3004;SDS011;1512;51.486;6.610;2023-06-14T17:18:58;3.73;;;3.40;;
3004;SDS011;1512;51.486;6.610;2023-06-14T17:23:07;4.50;;;4.10;;
3004;SDS011;1512;51.486;6.610;2023-06-14T17:27:16;4.03;;;3.63;;
3004;SDS011;1512;51.486;6.610;2023-06-14T17:31:25;5.93;;;3.77;;
3004;SDS011;1512;51.486;6.610;2023-06-14T17:35:34;4.17;;;3.77;;
3004;SDS011;1512;51.486;6.610;2023-06-14T17:39:44;3.70;;;3.40;;
3004;SDS011;1512;51.486;6.610;2023-06-14T17:43:53;4.33;;;3.93;;
3004;SDS011;1512;51.486;6.610;2023-06-14T17:48:01;3.77;;;3.47;;
3004;SDS011;1512;51.486;6.610;2023-06-14T17:52:10;3.63;;;3.33;;
3004;SDS011;1512;51.486;6.610;2023-06-14T17:56:21;4.13;;;3.37;;
3004;SDS011;1512;51.486;6.610;2023-06-14T18:00:33;3.50;;;3.20;;
3004;SDS011;1512;51.486;6.610;2023-06-14T18:04:42;6.50;;;4.23;;
3004;SDS011;1512;51.486;6.610;2023-06-14T18:08:51;6.53;;;4.20;;
3004;SDS011;1512;51.486;6.610;2023-06-14T18:13:00;4.60;;;3.77;;
3004;SDS011;1512;51.486;6.610;2023-06-14T18:17:09;4.37;;;3.93;;
3004;SDS011;1512;51.486;6.610;2023-06-14T18:21:18;4.27;;;3.87;;
3004;SDS011;1512;51.486;6.610;2023-06-14T18:25:28;3.40;;;3.10;;
3004;SDS011;1512;51.486;6.610;2023-06-14T18:29:36;5.37;;;4.37;;
3004;SDS011;1512;51.486;6.610;2023-06-14T18:33:45;4.03;;;3.50;;
3004;SDS011;1512;51.486;6.610;2023-06-14T18:37:54;3.53;;;3.23;;
3004;SDS011;1512;51.486;6.610;2023-06-14T18:42:03;3.63;;;3.33;;
3004;SDS011;1512;51.486;6.610;2023-06-14T18:46:12;8.83;;;3.70;;
3004;SDS011;1512;51.486;6.610;2023-06-14T18:50:21;3.90;;;3.37;;
3004;SDS011;1512;51.486;6.610;2023-06-14T18:54:30;4.50;;;3.80;;
3004;SDS011;1512;51.486;6.610;2023-06-14T18:58:39;3.40;;;3.10;;
3004;SDS011;1512;51.486;6.610;2023-06-14T19:02:47;4.57;;;3.60;;
3004;SDS011;1512;51.486;6.610;2023-06-14T19:06:56;6.50;;;3.60;;
3004;SDS011;1512;51.486;6.610;2023-06-14T19:11:05;6.47;;;3.53;;
3004;SDS011;1512;51.486;6.610;2023-06-14T19:15:16;3.67;;;3.37;;
3004;SDS011;1512;51.486;6.610;2023-06-14T19:19:25;4.13;;;3.43;;
3004;SDS011;1512;51.486;6.610;2023-06-14T19:23:34;3.90;;;3.50;;
3004;SDS011;1512;51.486;6.610;2023-06-14T19:27:45;6.03;;;3.40;;
3004;SDS011;1512;51.486;6.610;2023-06-14T19:31:54;6.23;;;3.30;;
3004;SDS011;1512;51.486;6.610;2023-06-14T19:36:03;3.57;;;3.23;;
3004;SDS011;1512;51.486;6.610;2023-06-14T19:40:12;4.17;;;3.77;;
3004;SDS011;1512;51.486;6.610;2023-06-14T19:44:22;4.53;;;4.00;;
3004;SDS011;1512;51.486;6.610;2023-06-14T19:48:31;5.27;;;3.50;;
3004;SDS011;1512;51.486;6.610;2023-06-14T19:52:40;3.50;;;3.20;;
3004;SDS011;1512;51.486;6.610;2023-06-14T19:56:48;3.80;;;3.40;;
3004;SDS011;1512;51.486;6.610;2023-06-14T20:00:57;3.93;;;3.57;;
3004;SDS011;1512;51.486;6.610;2023-06-14T20:05:06;4.30;;;3.90;;
3004;SDS011;1512;51.486;6.610;2023-06-14T20:09:16;4.30;;;3.40;;
3004;SDS011;1512;51.486;6.610;2023-06-14T20:13:26;3.80;;;3.47;;
3004;SDS011;1512;51.486;6.610;2023-06-14T20:17:34;3.63;;;3.33;;
3004;SDS011;1512;51.486;6.610;2023-06-14T20:21:43;4.60;;;4.10;;
3004;SDS011;1512;51.486;6.610;2023-06-14T20:25:52;6.67;;;3.40;;
3004;SDS011;1512;51.486;6.610;2023-06-14T20:30:01;3.70;;;3.40;;
3004;SDS011;1512;51.486;6.610;2023-06-14T20:34:11;3.83;;;3.43;;
3004;SDS011;1512;51.486;6.610;2023-06-14T20:38:19;3.60;;;3.30;;
3004;SDS011;1512;51.486;6.610;2023-06-14T20:42:30;4.25;;;3.22;;
3004;SDS011;1512;51.486;6.610;2023-06-14T20:46:41;3.77;;;3.47;;
3004;SDS011;1512;51.486;6.610;2023-06-14T20:50:52;3.20;;;2.90;;
3004;SDS011;1512;51.486;6.610;2023-06-14T21:00:10;3.92;;;3.55;;
3004;SDS011;1512;51.486;6.610;2023-06-14T21:04:20;3.27;;;2.97;;
3004;SDS011;1512;51.486;6.610;2023-06-14T21:08:29;3.67;;;3.37;;
3004;SDS011;1512;51.486;6.610;2023-06-14T21:12:38;5.33;;;3.50;;
3004;SDS011;1512;51.486;6.610;2023-06-14T21:16:48;3.27;;;2.97;;
3004;SDS011;1512;51.486;6.610;2023-06-14T21:20:56;3.43;;;3.13;;
3004;SDS011;1512;51.486;6.610;2023-06-14T21:25:05;8.77;;;3.90;;
3004;SDS011;1512;51.486;6.610;2023-06-14T21:29:14;3.70;;;3.10;;
3004;SDS011;1512;51.486;6.610;2023-06-14T21:33:23;3.70;;;3.40;;
3004;SDS011;1512;51.486;6.610;2023-06-14T21:37:31;4.10;;;3.70;;
3004;SDS011;1512;51.486;6.610;2023-06-14T21:46:22;4.03;;;3.63;;
3004;SDS011;1512;51.486;6.610;2023-06-14T21:50:31;3.67;;;3.20;;
3004;SDS011;1512;51.486;6.610;2023-06-14T21:54:43;4.03;;;3.73;;
3004;SDS011;1512;51.486;6.610;2023-06-14T21:58:51;4.23;;;3.60;;
3004;SDS011;1512;51.486;6.610;2023-06-14T22:03:00;3.93;;;3.53;;
3004;SDS011;1512;51.486;6.610;2023-06-14T22:07:09;3.57;;;3.27;;
3004;SDS011;1512;51.486;6.610;2023-06-14T22:11:25;4.80;;;4.30;;
3004;SDS011;1512;51.486;6.610;2023-06-14T22:15:36;3.80;;;3.50;;
3004;SDS011;1512;51.486;6.610;2023-06-14T22:19:45;3.83;;;3.47;;
3004;SDS011;1512;51.486;6.610;2023-06-14T22:23:55;4.23;;;3.83;;
3004;SDS011;1512;51.486;6.610;2023-06-14T22:28:04;3.90;;;3.60;;
3004;SDS011;1512;51.486;6.610;2023-06-14T22:32:13;8.03;;;3.57;;
3004;SDS011;1512;51.486;6.610;2023-06-14T22:36:23;3.67;;;3.33;;
3004;SDS011;1512;51.486;6.610;2023-06-14T22:40:32;5.73;;;4.00;;
3004;SDS011;1512;51.486;6.610;2023-06-14T22:44:41;4.63;;;3.97;;
3004;SDS011;1512;51.486;6.610;2023-06-14T22:48:51;3.20;;;3.00;;
3004;SDS011;1512;51.486;6.610;2023-06-14T22:53:01;3.97;;;3.57;;
3004;SDS011;1512;51.486;6.610;2023-06-14T22:57:11;4.60;;;4.20;;
3004;SDS011;1512;51.486;6.610;2023-06-14T23:01:21;3.63;;;3.33;;
3004;SDS011;1512;51.486;6.610;2023-06-14T23:05:33;3.97;;;3.60;;
3004;SDS011;1512;51.486;6.610;2023-06-14T23:09:43;4.50;;;3.80;;
3004;SDS011;1512;51.486;6.610;2023-06-14T23:13:52;4.17;;;3.77;;
3004;SDS011;1512;51.486;6.610;2023-06-14T23:18:01;5.20;;;4.03;;
3004;SDS011;1512;51.486;6.610;2023-06-14T23:22:10;4.60;;;4.20;;
3004;SDS011;1512;51.486;6.610;2023-06-14T23:26:20;4.77;;;4.00;;
3004;SDS011;1512;51.486;6.610;2023-06-14T23:30:30;6.63;;;3.73;;
3004;SDS011;1512;51.486;6.610;2023-06-14T23:34:40;4.60;;;4.20;;
3004;SDS011;1512;51.486;6.610;2023-06-14T23:38:50;4.40;;;4.00;;
3004;SDS011;1512;51.486;6.610;2023-06-14T23:42:59;4.90;;;4.50;;
3004;SDS011;1512;51.486;6.610;2023-06-14T23:47:10;6.07;;;4.50;;
3004;SDS011;1512;51.486;6.610;2023-06-14T23:51:18;4.73;;;4.33;;
3004;SDS011;1512;51.486;6.610;2023-06-14T23:55:28;4.50;;;4.10;;
3004;SDS011;1512;51.486;6.610;2023-06-14T23:59:37;4.27;;;3.90;;
